Time;durP1;ratioP1;P1;durP2;ratioP2;P2;SDS_P1;SDS_P2;PMS_P1;PMS_P2;Temp;Humidity;BMP_temperature;BMP_pressure;BME280_temperature;BME280_humidity;BME280_pressure;Samples;Min_cycle;Max_cycle;Signal;HPM_P1;HPM_P2
2023/12/04 00:00:18;;;;;;;43.58;17.02;;;;;;;;;;5072975;28;20508;-71
2023/12/04 00:02:45;;;;;;;37.40;15.48;;;;;;;;;;5072574;28;20112;-71
2023/12/04 00:05:12;;;;;;;42.45;17.60;;;;;;;;;;5073025;28;20094;-71
2023/12/04 00:07:39;;;;;;;36.67;14.95;;;;;;;;;;5072995;28;20064;-71
2023/12/04 00:10:06;;;;;;;36.92;16.38;;;;;;;;;;5072583;28;20371;-71
2023/12/04 00:12:33;;;;;;;32.80;15.75;;;;;;;;;;5072763;28;20386;-71
2023/12/04 00:15:00;;;;;;;35.08;15.00;;;;;;;;;;5072768;28;20063;-71
2023/12/04 00:17:27;;;;;;;37.22;15.43;;;;;;;;;;5072522;28;20083;-71
2023/12/04 00:19:54;;;;;;;36.22;15.52;;;;;;;;;;5072715;28;20478;-71
2023/12/04 00:22:21;;;;;;;33.78;15.40;;;;;;;;;;5075398;28;20543;-71
2023/12/04 00:24:47;;;;;;;39.78;15.95;;;;;;;;;;5076094;28;20490;-71
2023/12/04 00:27:14;;;;;;;34.42;15.52;;;;;;;;;;5076041;28;20062;-71
2023/12/04 00:29:41;;;;;;;32.92;14.32;;;;;;;;;;5076338;28;20072;-71
2023/12/04 00:32:08;;;;;;;32.28;14.75;;;;;;;;;;5076234;28;20505;-71
2023/12/04 00:34:35;;;;;;;35.55;15.52;;;;;;;;;;5075843;28;20074;-71
2023/12/04 00:37:02;;;;;;;39.97;15.85;;;;;;;;;;5075800;28;20017;-71
2023/12/04 00:39:29;;;;;;;35.00;15.65;;;;;;;;;;5075793;28;20501;-71
2023/12/04 00:41:56;;;;;;;37.38;16.65;;;;;;;;;;5076209;28;20036;-71
2023/12/04 00:44:22;;;;;;;38.65;16.63;;;;;;;;;;5076050;28;20074;-71
2023/12/04 00:46:49;;;;;;;37.15;16.50;;;;;;;;;;5075688;28;20052;-71
2023/12/04 00:49:16;;;;;;;36.00;15.98;;;;;;;;;;5075885;28;20539;-71
2023/12/04 00:51:43;;;;;;;31.48;15.23;;;;;;;;;;5075641;28;20028;-71
2023/12/04 00:54:10;;;;;;;33.60;15.30;;;;;;;;;;5075571;28;20024;-71
2023/12/04 00:56:39;;;;;;;37.70;15.70;;;;;;;;;;5075826;28;20505;-71
2023/12/04 00:59:06;;;;;;;37.30;15.77;;;;;;;;;;5075844;28;20103;-71
2023/12/04 01:01:33;;;;;;;34.28;17.67;;;;;;;;;;5075698;28;20059;-71
2023/12/04 01:04:00;;;;;;;37.70;17.00;;;;;;;;;;5075632;28;20037;-71
2023/12/04 01:06:27;;;;;;;32.85;15.48;;;;;;;;;;5075662;28;20060;-71
2023/12/04 01:08:55;;;;;;;31.40;15.23;;;;;;;;;;5075243;28;20075;-72
2023/12/04 01:11:22;;;;;;;30.95;14.82;;;;;;;;;;5075430;28;20021;-72
2023/12/04 01:13:49;;;;;;;31.13;14.95;;;;;;;;;;5075604;28;20523;-73
2023/12/04 01:16:17;;;;;;;34.83;15.80;;;;;;;;;;5075913;28;20386;-73
2023/12/04 01:18:44;;;;;;;31.27;15.07;;;;;;;;;;5074871;28;20068;-72
2023/12/04 01:21:11;;;;;;;27.35;14.20;;;;;;;;;;5075505;28;20504;-72
2023/12/04 01:23:37;;;;;;;29.05;14.27;;;;;;;;;;5075291;28;20029;-72
2023/12/04 01:26:05;;;;;;;30.42;13.73;;;;;;;;;;5075303;28;20486;-72
2023/12/04 01:28:32;;;;;;;26.02;14.18;;;;;;;;;;5075307;28;20079;-72
2023/12/04 01:30:59;;;;;;;29.35;13.88;;;;;;;;;;5074965;28;20074;-72
2023/12/04 01:33:26;;;;;;;27.15;14.43;;;;;;;;;;5074943;28;20531;-72
2023/12/04 01:35:53;;;;;;;28.85;14.40;;;;;;;;;;5074757;28;20028;-72
2023/12/04 01:38:20;;;;;;;27.20;12.98;;;;;;;;;;5075119;28;20439;-72
2023/12/04 01:40:46;;;;;;;25.20;12.30;;;;;;;;;;5075095;28;20067;-73
2023/12/04 01:43:14;;;;;;;26.25;13.65;;;;;;;;;;5075104;28;20478;-72
2023/12/04 01:45:41;;;;;;;25.63;13.23;;;;;;;;;;5075139;28;20394;-73
2023/12/04 01:48:09;;;;;;;25.88;12.70;;;;;;;;;;5074782;28;20500;-73
2023/12/04 01:50:36;;;;;;;25.15;13.50;;;;;;;;;;5074683;28;20033;-73
2023/12/04 01:53:04;;;;;;;27.75;12.38;;;;;;;;;;5074827;28;20482;-73
2023/12/04 01:55:31;;;;;;;24.40;12.00;;;;;;;;;;5074717;28;20017;-73
2023/12/04 01:57:59;;;;;;;27.65;12.90;;;;;;;;;;5074282;28;20052;-72
2023/12/04 02:00:26;;;;;;;25.20;12.05;;;;;;;;;;5074576;28;20394;-73
2023/12/04 02:02:53;;;;;;;24.70;12.88;;;;;;;;;;5074271;28;20028;-73
2023/12/04 02:05:21;;;;;;;23.65;11.55;;;;;;;;;;5074147;28;20052;-73
2023/12/04 02:07:48;;;;;;;23.70;11.40;;;;;;;;;;5074453;28;20063;-72
2023/12/04 02:10:15;;;;;;;21.50;11.50;;;;;;;;;;5074412;28;20078;-73
2023/12/04 02:12:42;;;;;;;23.48;11.65;;;;;;;;;;5074376;28;20051;-72
2023/12/04 02:15:10;;;;;;;21.85;11.30;;;;;;;;;;5074238;28;20476;-73
2023/12/04 02:17:37;;;;;;;24.52;11.63;;;;;;;;;;5073881;28;20437;-72
2023/12/04 02:20:05;;;;;;;22.45;10.77;;;;;;;;;;5074180;28;20021;-73
2023/12/04 02:22:34;;;;;;;21.08;11.05;;;;;;;;;;5074119;28;20028;-73
2023/12/04 02:25:02;;;;;;;22.95;11.18;;;;;;;;;;5074033;28;20052;-73
2023/12/04 02:27:32;;;;;;;21.02;11.18;;;;;;;;;;5073645;28;20020;-73
2023/12/04 02:30:02;;;;;;;20.65;11.25;;;;;;;;;;5074041;28;20457;-72
2023/12/04 02:32:32;;;;;;;21.00;10.65;;;;;;;;;;5073714;28;20068;-73
2023/12/04 02:35:03;;;;;;;20.83;10.82;;;;;;;;;;5073882;28;20122;-72
2023/12/04 02:37:32;;;;;;;19.85;10.90;;;;;;;;;;5073550;28;20442;-73
2023/12/04 02:40:01;;;;;;;21.75;11.02;;;;;;;;;;5073830;28;20020;-73
2023/12/04 02:42:31;;;;;;;20.48;11.00;;;;;;;;;;5073884;28;20025;-73
2023/12/04 02:44:59;;;;;;;18.13;10.00;;;;;;;;;;5073171;28;20044;-73
2023/12/04 02:47:28;;;;;;;22.52;11.63;;;;;;;;;;5073642;28;20074;-72
2023/12/04 02:49:57;;;;;;;23.17;11.40;;;;;;;;;;5073832;28;20150;-73
2023/12/04 02:52:26;;;;;;;19.77;10.70;;;;;;;;;;5073458;28;20068;-72
2023/12/04 02:54:55;;;;;;;19.63;11.07;;;;;;;;;;5073630;28;20063;-72
2023/12/04 02:57:24;;;;;;;18.60;10.63;;;;;;;;;;5073709;28;20063;-73
2023/12/04 02:59:52;;;;;;;21.08;10.35;;;;;;;;;;5073604;28;20033;-72
2023/12/04 03:02:21;;;;;;;18.40;10.02;;;;;;;;;;5073551;28;20067;-73
2023/12/04 03:04:50;;;;;;;20.52;10.65;;;;;;;;;;5073234;28;20086;-73
2023/12/04 03:07:21;;;;;;;21.13;10.80;;;;;;;;;;5073530;28;20067;-72
2023/12/04 03:09:50;;;;;;;19.67;9.90;;;;;;;;;;5073169;28;20025;-72
2023/12/04 03:12:20;;;;;;;18.23;9.88;;;;;;;;;;5073390;28;20371;-72
2023/12/04 03:14:51;;;;;;;17.63;9.60;;;;;;;;;;5073604;28;20470;-72
2023/12/04 03:17:19;;;;;;;18.20;9.75;;;;;;;;;;5073221;28;20072;-72
2023/12/04 03:19:48;;;;;;;17.58;9.23;;;;;;;;;;5073009;28;20021;-72
2023/12/04 03:22:17;;;;;;;16.58;8.43;;;;;;;;;;5073407;28;20064;-72
2023/12/04 03:24:46;;;;;;;16.05;8.70;;;;;;;;;;5072928;28;20075;-72
2023/12/04 03:27:15;;;;;;;17.52;9.30;;;;;;;;;;5073380;28;20052;-72
2023/12/04 03:29:44;;;;;;;20.60;10.15;;;;;;;;;;5073300;28;20032;-72
2023/12/04 03:32:13;;;;;;;18.27;9.20;;;;;;;;;;5072756;28;20086;-72
2023/12/04 03:34:42;;;;;;;16.23;8.65;;;;;;;;;;5073091;28;20493;-72
2023/12/04 03:37:12;;;;;;;15.73;8.32;;;;;;;;;;5073186;28;20490;-72
2023/12/04 03:39:41;;;;;;;14.95;8.52;;;;;;;;;;5072727;28;20079;-72
2023/12/04 03:42:10;;;;;;;14.75;7.78;;;;;;;;;;5073137;28;20090;-72
2023/12/04 03:44:38;;;;;;;16.00;8.48;;;;;;;;;;5073035;28;20064;-72
2023/12/04 03:47:07;;;;;;;14.77;7.93;;;;;;;;;;5072680;28;20033;-72
2023/12/04 03:49:36;;;;;;;14.32;7.95;;;;;;;;;;5073063;28;20032;-72
2023/12/04 03:52:05;;;;;;;13.65;7.65;;;;;;;;;;5072587;28;20458;-72
2023/12/04 03:54:36;;;;;;;13.95;7.50;;;;;;;;;;5073003;28;20066;-71
2023/12/04 03:57:05;;;;;;;14.70;7.97;;;;;;;;;;5076980;28;20066;-72
2023/12/04 03:59:33;;;;;;;14.20;8.00;;;;;;;;;;5076869;28;20051;-72
2023/12/04 04:02:00;;;;;;;13.80;8.00;;;;;;;;;;5076971;28;20035;-72
2023/12/04 04:04:29;;;;;;;13.55;7.35;;;;;;;;;;5076793;28;20500;-71
2023/12/04 04:06:58;;;;;;;14.05;7.82;;;;;;;;;;5076729;28;20489;-71
2023/12/04 04:09:28;;;;;;;13.07;7.45;;;;;;;;;;5076728;28;20037;-72
2023/12/04 04:11:57;;;;;;;15.02;7.72;;;;;;;;;;5076669;28;20067;-71
2023/12/04 04:14:26;;;;;;;13.38;7.47;;;;;;;;;;5076361;28;20033;-71
2023/12/04 04:16:56;;;;;;;13.93;7.93;;;;;;;;;;5076382;28;20488;-73
2023/12/04 04:19:23;;;;;;;12.75;7.07;;;;;;;;;;5076646;28;20078;-71
2023/12/04 04:21:52;;;;;;;13.23;7.28;;;;;;;;;;5076547;28;20024;-72
2023/12/04 04:24:21;;;;;;;11.30;6.53;;;;;;;;;;5076556;28;20070;-71
2023/12/04 04:26:50;;;;;;;13.02;6.88;;;;;;;;;;5076423;28;20036;-72
2023/12/04 04:29:18;;;;;;;12.85;7.22;;;;;;;;;;5076411;28;20086;-71
2023/12/04 04:31:46;;;;;;;11.80;6.75;;;;;;;;;;5076346;28;20448;-72
2023/12/04 04:34:13;;;;;;;11.52;6.45;;;;;;;;;;5075907;28;20039;-72
2023/12/04 04:36:42;;;;;;;14.68;6.90;;;;;;;;;;5075809;28;20141;-72
2023/12/04 04:39:10;;;;;;;12.90;6.75;;;;;;;;;;5076070;28;20071;-73
2023/12/04 04:41:39;;;;;;;12.05;6.75;;;;;;;;;;5076127;28;20539;-72
2023/12/04 04:44:08;;;;;;;11.50;6.55;;;;;;;;;;5075776;28;20035;-72
2023/12/04 04:46:36;;;;;;;11.30;6.78;;;;;;;;;;5076056;28;20024;-72
2023/12/04 04:49:06;;;;;;;12.05;6.60;;;;;;;;;;5075980;28;20489;-73
2023/12/04 04:51:34;;;;;;;10.38;6.15;;;;;;;;;;5075518;28;20020;-72
2023/12/04 04:54:03;;;;;;;8.82;5.50;;;;;;;;;;5075462;28;20496;-72
2023/12/04 04:56:32;;;;;;;11.73;6.97;;;;;;;;;;5075527;28;20028;-72
2023/12/04 04:59:00;;;;;;;12.32;7.10;;;;;;;;;;5075834;28;20063;-73
2023/12/04 05:01:27;;;;;;;11.90;7.30;;;;;;;;;;5075729;28;20072;-72
2023/12/04 05:03:55;;;;;;;10.77;6.43;;;;;;;;;;5075744;28;20390;-72
2023/12/04 05:06:24;;;;;;;11.57;5.97;;;;;;;;;;5075415;28;20035;-72
2023/12/04 05:08:52;;;;;;;10.05;5.68;;;;;;;;;;5075494;28;20029;-72
2023/12/04 05:11:21;;;;;;;10.98;6.40;;;;;;;;;;5075684;28;20071;-72
2023/12/04 05:13:50;;;;;;;11.02;5.82;;;;;;;;;;5075581;28;20067;-71
2023/12/04 05:16:19;;;;;;;10.07;6.32;;;;;;;;;;5075061;28;20112;-71
2023/12/04 05:18:47;;;;;;;9.18;5.95;;;;;;;;;;5075155;28;20052;-71
2023/12/04 05:21:16;;;;;;;10.20;6.55;;;;;;;;;;5075062;28;20489;-72
2023/12/04 05:23:45;;;;;;;12.25;6.28;;;;;;;;;;5075346;28;20020;-71
2023/12/04 05:26:14;;;;;;;12.80;7.38;;;;;;;;;;5075278;28;20504;-71
2023/12/04 05:28:43;;;;;;;11.13;6.63;;;;;;;;;;5075163;28;20078;-71
2023/12/04 05:31:11;;;;;;;10.85;6.38;;;;;;;;;;5074795;28;20068;-71
2023/12/04 05:33:40;;;;;;;11.00;6.40;;;;;;;;;;5074486;28;20071;-71
2023/12/04 05:36:09;;;;;;;9.65;5.22;;;;;;;;;;5074714;28;20066;-71
2023/12/04 05:38:38;;;;;;;10.45;6.20;;;;;;;;;;5075074;28;20449;-71
2023/12/04 05:41:07;;;;;;;11.02;5.82;;;;;;;;;;5075044;28;20071;-71
2023/12/04 05:43:36;;;;;;;10.32;6.35;;;;;;;;;;5074614;28;20024;-71
2023/12/04 05:46:05;;;;;;;9.35;5.90;;;;;;;;;;5074859;28;20060;-71
2023/12/04 05:48:34;;;;;;;9.10;5.88;;;;;;;;;;5074852;28;20036;-71
2023/12/04 05:51:03;;;;;;;8.65;5.35;;;;;;;;;;5074611;28;20037;-71
2023/12/04 05:53:30;;;;;;;8.85;5.75;;;;;;;;;;5074543;28;20028;-71
2023/12/04 05:55:58;;;;;;;9.98;5.82;;;;;;;;;;5074438;28;20036;-71
2023/12/04 05:58:26;;;;;;;16.80;8.98;;;;;;;;;;5074708;28;20043;-71
2023/12/04 06:00:55;;;;;;;14.07;7.20;;;;;;;;;;5074670;28;20035;-71
2023/12/04 06:03:24;;;;;;;13.43;8.02;;;;;;;;;;5074579;28;20032;-71
2023/12/04 06:05:53;;;;;;;11.98;7.55;;;;;;;;;;5074501;28;20454;-71
2023/12/04 06:08:23;;;;;;;11.77;7.57;;;;;;;;;;5074548;28;20037;-71
2023/12/04 06:10:52;;;;;;;11.68;6.82;;;;;;;;;;5074040;28;20497;-71
2023/12/04 06:13:21;;;;;;;9.05;5.88;;;;;;;;;;5074514;28;20064;-71
2023/12/04 06:15:49;;;;;;;10.23;5.57;;;;;;;;;;5073891;28;20064;-71
2023/12/04 06:18:17;;;;;;;12.43;6.30;;;;;;;;;;5073511;28;20053;-71
2023/12/04 06:20:46;;;;;;;10.18;5.90;;;;;;;;;;5073877;28;20036;-71
2023/12/04 06:23:14;;;;;;;9.38;5.18;;;;;;;;;;5074209;28;20066;-71
2023/12/04 06:25:42;;;;;;;10.43;5.97;;;;;;;;;;5074127;28;20052;-71
2023/12/04 06:28:09;;;;;;;10.45;5.85;;;;;;;;;;5074214;28;20042;-72
2023/12/04 06:30:38;;;;;;;10.05;5.85;;;;;;;;;;5073593;28;20123;-71
2023/12/04 06:33:06;;;;;;;11.82;6.30;;;;;;;;;;5073963;28;20071;-71
2023/12/04 06:35:35;;;;;;;9.68;5.95;;;;;;;;;;5073716;28;20615;-71
2023/12/04 06:38:08;;;;;;;10.68;6.22;;;;;;;;;;5073925;28;20021;-72
2023/12/04 06:40:35;;;;;;;13.05;6.28;;;;;;;;;;5073967;28;20021;-71
2023/12/04 06:43:03;;;;;;;10.73;6.57;;;;;;;;;;5073856;28;20028;-71
2023/12/04 06:45:32;;;;;;;10.70;6.05;;;;;;;;;;5073842;28;20037;-72
2023/12/04 06:48:01;;;;;;;12.45;6.72;;;;;;;;;;5073343;28;20115;-71
2023/12/04 06:50:29;;;;;;;11.63;6.32;;;;;;;;;;5073666;28;20499;-72
2023/12/04 06:52:57;;;;;;;9.10;5.63;;;;;;;;;;5073578;28;20032;-72
2023/12/04 06:55:25;;;;;;;10.90;5.60;;;;;;;;;;5073572;28;20025;-72
2023/12/04 06:57:53;;;;;;;10.15;6.00;;;;;;;;;;5073287;28;20028;-72
2023/12/04 07:00:21;;;;;;;9.93;5.85;;;;;;;;;;5073833;28;20021;-72
2023/12/04 07:02:50;;;;;;;10.82;5.78;;;;;;;;;;5073900;28;20450;-72
2023/12/04 07:05:18;;;;;;;10.52;6.18;;;;;;;;;;5073643;28;20032;-71
2023/12/04 07:07:46;;;;;;;11.43;6.45;;;;;;;;;;5072809;28;20028;-72
2023/12/04 07:10:14;;;;;;;12.52;6.75;;;;;;;;;;5073346;28;20046;-71
2023/12/04 07:12:42;;;;;;;11.98;6.03;;;;;;;;;;5073376;28;20508;-71
2023/12/04 07:15:11;;;;;;;9.50;5.78;;;;;;;;;;5072965;28;20036;-71
2023/12/04 07:17:38;;;;;;;12.50;6.35;;;;;;;;;;5073012;28;20120;-72
2023/12/04 07:20:06;;;;;;;14.18;6.25;;;;;;;;;;5072991;28;20024;-71
2023/12/04 07:22:34;;;;;;;11.45;6.28;;;;;;;;;;5073238;28;20039;-71
2023/12/04 07:25:02;;;;;;;12.52;6.60;;;;;;;;;;5073324;28;20021;-71
2023/12/04 07:27:30;;;;;;;14.48;7.15;;;;;;;;;;5073072;28;20518;-72
2023/12/04 07:29:58;;;;;;;10.27;5.82;;;;;;;;;;5068487;28;20030;-71
2023/12/04 07:32:25;;;;;;;13.13;5.82;;;;;;;;;;5065266;28;20029;-71
2023/12/04 07:34:53;;;;;;;9.65;6.13;;;;;;;;;;5072335;28;20516;-71
2023/12/04 07:37:21;;;;;;;9.93;5.78;;;;;;;;;;5058029;28;20537;-71
2023/12/04 07:39:48;;;;;;;10.05;5.78;;;;;;;;;;5062187;28;20394;-71
2023/12/04 07:42:16;;;;;;;12.77;6.25;;;;;;;;;;5070267;28;20434;-71
2023/12/04 07:44:43;;;;;;;12.25;6.15;;;;;;;;;;5062454;28;20046;-71
2023/12/04 07:47:11;;;;;;;12.25;6.00;;;;;;;;;;5059295;28;20024;-71
2023/12/04 07:49:39;;;;;;;9.93;5.28;;;;;;;;;;5067777;28;20038;-71
2023/12/04 07:52:06;;;;;;;10.82;5.65;;;;;;;;;;5064282;28;20030;-71
2023/12/04 07:54:34;;;;;;;11.30;6.15;;;;;;;;;;5071046;28;20039;-71
2023/12/04 07:57:05;;;;;;;11.57;6.13;;;;;;;;;;5071116;28;20033;-71
2023/12/04 07:59:33;;;;;;;10.93;6.30;;;;;;;;;;5071711;28;20024;-70
2023/12/04 08:02:01;;;;;;;12.77;6.88;;;;;;;;;;5071369;28;20021;-71
2023/12/04 08:04:30;;;;;;;15.80;7.10;;;;;;;;;;5060039;28;20399;-71
2023/12/04 08:06:59;;;;;;;11.25;6.63;;;;;;;;;;5065024;28;20553;-71
2023/12/04 08:09:27;;;;;;;18.63;6.82;;;;;;;;;;5065218;28;20466;-72
2023/12/04 08:11:55;;;;;;;12.20;6.40;;;;;;;;;;5072077;28;20029;-71
2023/12/04 08:14:24;;;;;;;12.25;6.22;;;;;;;;;;5068111;28;20142;-71
2023/12/04 08:16:52;;;;;;;11.85;6.32;;;;;;;;;;5069195;28;20033;-71
2023/12/04 08:19:20;;;;;;;14.25;7.22;;;;;;;;;;5066559;28;20029;-72
2023/12/04 08:21:48;;;;;;;13.85;6.95;;;;;;;;;;5056753;28;20386;-72
2023/12/04 08:24:18;;;;;;;10.98;7.43;;;;;;;;;;5059574;28;20434;-71
2023/12/04 08:26:47;;;;;;;11.68;6.80;;;;;;;;;;5069460;28;20051;-71
2023/12/04 08:29:16;;;;;;;9.82;6.10;;;;;;;;;;5068250;28;20032;-71
2023/12/04 08:31:45;;;;;;;9.77;6.65;;;;;;;;;;5070906;28;20035;-71
2023/12/04 08:34:15;;;;;;;11.82;6.38;;;;;;;;;;5071363;28;20033;-72
2023/12/04 08:36:44;;;;;;;11.30;7.10;;;;;;;;;;5070910;28;20028;-71
2023/12/04 08:39:15;;;;;;;11.98;7.38;;;;;;;;;;5066835;28;20035;-71
2023/12/04 08:41:43;;;;;;;12.57;7.15;;;;;;;;;;5066672;28;20049;-71
2023/12/04 08:44:12;;;;;;;10.48;6.72;;;;;;;;;;5074839;28;20043;-71
2023/12/04 08:46:43;;;;;;;11.63;7.05;;;;;;;;;;5075652;28;20074;-71
2023/12/04 08:49:12;;;;;;;12.25;7.07;;;;;;;;;;5075489;28;20039;-72
2023/12/04 08:51:40;;;;;;;12.80;7.20;;;;;;;;;;5074169;28;20500;-71
2023/12/04 08:54:07;;;;;;;13.32;6.57;;;;;;;;;;5056817;28;20036;-72
2023/12/04 08:56:35;;;;;;;15.27;7.65;;;;;;;;;;5072528;28;20112;-71
2023/12/04 08:59:02;;;;;;;13.82;7.50;;;;;;;;;;5062928;28;20375;-71
2023/12/04 09:01:31;;;;;;;11.05;6.57;;;;;;;;;;5075402;28;20816;-71
2023/12/04 09:03:59;;;;;;;11.82;6.95;;;;;;;;;;5073017;28;20058;-72
2023/12/04 09:06:27;;;;;;;10.13;6.40;;;;;;;;;;5071823;28;20036;-71
2023/12/04 09:08:54;;;;;;;13.05;7.53;;;;;;;;;;5084035;28;20378;-72
2023/12/04 09:11:22;;;;;;;8.27;5.78;;;;;;;;;;5074314;28;20035;-72
2023/12/04 09:13:50;;;;;;;11.02;5.93;;;;;;;;;;5069583;28;20029;-71
2023/12/04 09:16:17;;;;;;;10.85;6.15;;;;;;;;;;5071232;28;20119;-72
2023/12/04 09:18:46;;;;;;;10.35;6.68;;;;;;;;;;5079007;28;20044;-71
2023/12/04 09:21:14;;;;;;;9.63;6.30;;;;;;;;;;5073064;28;20061;-71
2023/12/04 09:23:42;;;;;;;10.75;6.93;;;;;;;;;;5072672;28;20128;-72
2023/12/04 09:26:11;;;;;;;9.25;5.93;;;;;;;;;;5074647;28;20142;-72
2023/12/04 09:28:39;;;;;;;9.40;6.05;;;;;;;;;;5064233;28;20067;-72
2023/12/04 09:31:08;;;;;;;9.38;5.55;;;;;;;;;;5071296;28;20408;-71
2023/12/04 09:33:36;;;;;;;11.15;6.18;;;;;;;;;;5074988;28;20025;-71
2023/12/04 09:36:04;;;;;;;11.85;6.97;;;;;;;;;;5070615;28;20030;-72
2023/12/04 09:38:32;;;;;;;9.73;6.43;;;;;;;;;;5074635;28;20456;-71
2023/12/04 09:41:01;;;;;;;16.25;7.50;;;;;;;;;;5073953;28;20539;-72
2023/12/04 09:43:31;;;;;;;11.93;5.80;;;;;;;;;;5072660;28;20024;-72
2023/12/04 09:46:01;;;;;;;9.55;5.80;;;;;;;;;;5073535;28;20501;-72
2023/12/04 09:48:29;;;;;;;8.95;5.53;;;;;;;;;;5073436;28;20035;-72
2023/12/04 09:50:58;;;;;;;9.40;5.90;;;;;;;;;;5070654;28;20085;-72
2023/12/04 09:53:28;;;;;;;13.38;5.55;;;;;;;;;;5071775;28;20048;-72
2023/12/04 09:56:01;;;;;;;9.63;6.22;;;;;;;;;;5071423;28;20039;-72
2023/12/04 09:58:32;;;;;;;7.20;4.40;;;;;;;;;;5072588;28;20513;-72
2023/12/04 10:01:02;;;;;;;10.10;5.95;;;;;;;;;;5075415;28;20025;-72
2023/12/04 10:03:31;;;;;;;8.82;6.07;;;;;;;;;;5063254;28;20029;-72
2023/12/04 10:05:59;;;;;;;15.27;8.18;;;;;;;;;;5074819;28;20450;-72
2023/12/04 10:08:28;;;;;;;14.85;8.65;;;;;;;;;;5073104;28;20119;-72
2023/12/04 10:10:58;;;;;;;12.32;5.93;;;;;;;;;;5074194;28;20035;-72
2023/12/04 10:13:27;;;;;;;11.15;6.50;;;;;;;;;;5071547;28;20036;-72
2023/12/04 10:15:55;;;;;;;11.48;6.25;;;;;;;;;;5072929;28;20071;-72
2023/12/04 10:18:30;;;;;;;11.63;7.00;;;;;;;;;;5071850;28;20054;-73
2023/12/04 10:20:59;;;;;;;13.50;6.45;;;;;;;;;;5071178;28;20033;-72
2023/12/04 10:23:44;;;;;;;10.90;6.22;;;;;;;;;;5082583;28;20052;-71
2023/12/04 10:26:16;;;;;;;12.50;6.63;;;;;;;;;;5062906;28;20070;-71
2023/12/04 10:29:02;;;;;;;12.20;6.97;;;;;;;;;;5071740;28;20503;-72
2023/12/04 10:31:35;;;;;;;14.93;8.65;;;;;;;;;;5073090;28;20040;-72
2023/12/04 10:34:05;;;;;;;11.68;7.10;;;;;;;;;;5073796;28;20447;-72
2023/12/04 10:36:34;;;;;;;11.32;6.60;;;;;;;;;;5066179;28;20097;-72
2023/12/04 10:39:04;;;;;;;10.27;6.35;;;;;;;;;;5060467;28;20060;-72
2023/12/04 10:41:34;;;;;;;9.85;6.47;;;;;;;;;;5069678;28;20066;-72
2023/12/04 10:44:04;;;;;;;11.00;6.68;;;;;;;;;;5069050;28;20025;-72
2023/12/04 10:46:33;;;;;;;10.38;7.75;;;;;;;;;;5067253;28;20032;-72
2023/12/04 10:49:03;;;;;;;10.88;7.15;;;;;;;;;;5074793;28;20060;-72
2023/12/04 10:51:31;;;;;;;12.65;7.80;;;;;;;;;;5066616;28;20034;-72
2023/12/04 10:54:00;;;;;;;11.65;6.57;;;;;;;;;;5072073;28;20120;-72
2023/12/04 10:56:34;;;;;;;11.40;7.07;;;;;;;;;;5069900;28;20047;-73
2023/12/04 10:59:04;;;;;;;9.95;6.40;;;;;;;;;;5064331;28;20115;-72
2023/12/04 11:01:33;;;;;;;13.80;6.22;;;;;;;;;;5058160;28;20110;-72
2023/12/04 11:04:02;;;;;;;11.50;6.55;;;;;;;;;;5080290;28;20437;-72
2023/12/04 11:06:32;;;;;;;10.75;6.05;;;;;;;;;;5064498;28;20036;-72
2023/12/04 11:09:02;;;;;;;11.15;7.15;;;;;;;;;;5072947;28;20032;-72
2023/12/04 11:11:34;;;;;;;9.00;5.90;;;;;;;;;;5065645;28;20032;-72
2023/12/04 11:14:04;;;;;;;11.15;6.82;;;;;;;;;;5071933;28;20033;-72
2023/12/04 11:16:38;;;;;;;11.88;6.38;;;;;;;;;;5069784;28;20040;-72
2023/12/04 11:19:13;;;;;;;11.40;6.97;;;;;;;;;;5071502;28;20087;-72
2023/12/04 11:21:41;;;;;;;12.43;7.13;;;;;;;;;;5071868;28;20020;-73
2023/12/04 11:24:11;;;;;;;12.25;6.82;;;;;;;;;;5071948;28;20042;-72
2023/12/04 11:26:40;;;;;;;10.00;6.20;;;;;;;;;;5072451;28;20029;-72
2023/12/04 11:29:09;;;;;;;14.57;6.95;;;;;;;;;;5071791;28;20433;-72
2023/12/04 11:31:39;;;;;;;12.68;7.18;;;;;;;;;;5070191;28;20028;-72
2023/12/04 11:34:09;;;;;;;12.05;7.18;;;;;;;;;;5069879;28;20071;-72
2023/12/04 11:36:38;;;;;;;10.00;6.25;;;;;;;;;;5072282;28;20037;-72
2023/12/04 11:39:06;;;;;;;12.35;6.82;;;;;;;;;;5071934;28;20509;-72
2023/12/04 11:41:38;;;;;;;12.98;6.38;;;;;;;;;;5071772;28;20493;-72
2023/12/04 11:44:15;;;;;;;11.52;6.43;;;;;;;;;;5072628;28;20490;-73
2023/12/04 11:46:58;;;;;;;10.40;6.43;;;;;;;;;;5071838;28;20032;-72
2023/12/04 11:52:06;;;;;;;12.05;6.47;;;;;;;;;;5109859;27;20426;-69
2023/12/04 11:54:56;;;;;;;10.02;6.20;;;;;;;;;;5110088;28;20027;-74
2023/12/04 11:57:29;;;;;;;11.65;5.72;;;;;;;;;;5110383;28;20526;-74
2023/12/04 12:00:14;;;;;;;9.43;5.78;;;;;;;;;;5109584;28;20028;-71
2023/12/04 12:02:42;;;;;;;9.38;5.80;;;;;;;;;;5110795;28;20077;-73
2023/12/04 12:05:10;;;;;;;11.40;5.47;;;;;;;;;;5109516;28;20026;-74
2023/12/04 12:07:38;;;;;;;11.25;5.75;;;;;;;;;;5108969;28;20393;-73
2023/12/04 12:10:06;;;;;;;9.00;5.60;;;;;;;;;;5104799;28;20488;-72
2023/12/04 12:12:36;;;;;;;10.65;6.32;;;;;;;;;;5107704;28;20027;-72
2023/12/04 12:15:04;;;;;;;9.00;5.43;;;;;;;;;;5103598;28;20470;-72
2023/12/04 12:17:33;;;;;;;10.23;5.85;;;;;;;;;;5105957;28;20026;-72
2023/12/04 12:20:04;;;;;;;9.95;6.20;;;;;;;;;;5108949;27;20047;-72
2023/12/04 12:22:33;;;;;;;9.35;5.65;;;;;;;;;;5109281;28;20016;-72
2023/12/04 12:25:01;;;;;;;10.02;6.22;;;;;;;;;;5108498;28;20508;-72
2023/12/04 12:27:30;;;;;;;11.65;7.20;;;;;;;;;;5108589;28;20028;-73
2023/12/04 12:30:00;;;;;;;9.18;5.88;;;;;;;;;;5110375;28;20070;-72
2023/12/04 12:32:28;;;;;;;13.43;7.30;;;;;;;;;;5108913;28;20031;-72
2023/12/04 12:34:57;;;;;;;19.15;11.15;;;;;;;;;;5109321;27;20023;-74
2023/12/04 12:37:26;;;;;;;25.27;13.73;;;;;;;;;;5109641;27;20077;-72
2023/12/04 12:39:55;;;;;;;22.42;11.20;;;;;;;;;;5107718;27;20028;-72
2023/12/04 12:42:26;;;;;;;20.80;11.80;;;;;;;;;;5089271;27;20493;-72
2023/12/04 12:44:55;;;;;;;11.00;6.38;;;;;;;;;;5093982;28;20089;-72
2023/12/04 12:47:23;;;;;;;12.60;6.55;;;;;;;;;;5108809;28;20427;-72
2023/12/04 12:49:51;;;;;;;11.15;6.28;;;;;;;;;;5110015;27;20084;-72
2023/12/04 12:52:19;;;;;;;10.77;6.80;;;;;;;;;;5109409;27;20111;-72
2023/12/04 12:54:47;;;;;;;11.88;6.40;;;;;;;;;;5109318;28;20024;-73
2023/12/04 12:57:15;;;;;;;12.38;6.78;;;;;;;;;;5110094;28;20499;-73
2023/12/04 12:59:43;;;;;;;12.02;7.30;;;;;;;;;;5111471;28;20106;-73
2023/12/04 13:02:10;;;;;;;12.85;7.07;;;;;;;;;;5115566;27;20401;-74
2023/12/04 13:04:40;;;;;;;14.13;7.35;;;;;;;;;;5091010;28;20494;-73
2023/12/04 13:07:08;;;;;;;12.75;7.93;;;;;;;;;;5095044;28;20063;-72
2023/12/04 13:09:37;;;;;;;15.68;7.50;;;;;;;;;;5097135;28;20032;-73
2023/12/04 13:12:07;;;;;;;15.30;6.90;;;;;;;;;;5091755;28;20481;-72
2023/12/04 13:14:37;;;;;;;16.58;7.72;;;;;;;;;;5093179;28;20036;-73
2023/12/04 13:17:06;;;;;;;15.40;7.47;;;;;;;;;;5087701;28;20555;-73
2023/12/04 13:19:35;;;;;;;14.93;7.47;;;;;;;;;;5094458;28;20077;-73
2023/12/04 13:22:04;;;;;;;12.15;6.90;;;;;;;;;;5097034;28;20031;-73
2023/12/04 13:24:31;;;;;;;12.23;7.28;;;;;;;;;;5094807;28;20089;-73
2023/12/04 13:26:59;;;;;;;17.73;8.65;;;;;;;;;;5095736;28;20160;-73
2023/12/04 13:29:26;;;;;;;16.45;7.80;;;;;;;;;;5092046;28;20038;-73
2023/12/04 13:31:54;;;;;;;13.35;7.85;;;;;;;;;;5091477;28;20630;-73
2023/12/04 13:34:22;;;;;;;13.85;7.75;;;;;;;;;;5095577;28;20028;-73
2023/12/04 13:36:50;;;;;;;14.52;8.57;;;;;;;;;;5095532;28;20478;-73
2023/12/04 13:39:22;;;;;;;16.17;9.05;;;;;;;;;;5093002;28;20028;-73
2023/12/04 13:44:37;;;;;;;36.00;15.93;;;;;;;;;;5094295;28;20028;-72
2023/12/04 13:47:06;;;;;;;42.78;19.42;;;;;;;;;;5094382;28;20074;-72
2023/12/04 13:49:35;;;;;;;31.75;14.73;;;;;;;;;;5094871;28;20039;-73
2023/12/04 13:52:07;;;;;;;43.15;19.00;;;;;;;;;;5072479;28;20028;-73
2023/12/04 13:54:54;;;;;;;17.60;9.77;;;;;;;;;;5072440;28;20111;-72
2023/12/04 13:57:54;;;;;;;18.58;10.68;;;;;;;;;;5066388;28;20033;-72
2023/12/04 14:00:12;;;;;;;15.50;8.77;;;;;;;;;;5074584;28;20392;-73
2023/12/04 14:02:40;;;;;;;14.55;8.13;;;;;;;;;;5073978;28;20051;-72
2023/12/04 14:05:10;;;;;;;15.88;8.82;;;;;;;;;;5074102;28;20021;-73
2023/12/04 14:07:44;;;;;;;16.92;9.27;;;;;;;;;;5068082;28;20102;-72
2023/12/04 14:10:14;;;;;;;14.30;8.75;;;;;;;;;;5071523;28;20094;-72
2023/12/04 14:12:41;;;;;;;16.42;9.38;;;;;;;;;;5062442;28;20047;-72
2023/12/04 14:15:09;;;;;;;17.92;9.23;;;;;;;;;;5071182;28;20061;-72
2023/12/04 14:17:39;;;;;;;16.08;9.57;;;;;;;;;;5072972;28;20043;-72
2023/12/04 14:20:12;;;;;;;17.73;10.18;;;;;;;;;;5073025;28;20024;-72
2023/12/04 14:22:43;;;;;;;19.52;10.57;;;;;;;;;;5074052;28;20031;-72
2023/12/04 14:25:12;;;;;;;18.23;10.45;;;;;;;;;;5072912;28;20510;-73
2023/12/04 14:27:43;;;;;;;17.15;9.25;;;;;;;;;;5070674;28;20486;-72
2023/12/04 14:30:13;;;;;;;14.52;9.32;;;;;;;;;;5073368;28;20024;-72
2023/12/04 14:32:42;;;;;;;17.50;10.23;;;;;;;;;;5071038;28;20025;-72
2023/12/04 14:35:13;;;;;;;17.98;9.93;;;;;;;;;;5068265;28;20017;-72
2023/12/04 14:37:41;;;;;;;20.02;10.30;;;;;;;;;;5072173;28;20027;-72
2023/12/04 14:40:13;;;;;;;18.60;11.00;;;;;;;;;;5068113;28;20048;-72
2023/12/04 14:42:43;;;;;;;18.30;10.13;;;;;;;;;;5067109;28;20039;-73